sensor_id;sensor_type;location;lat;lon;timestamp;P1;durP1;ratioP1;P2;durP2;ratioP2
9288;SDS011;4683;50.864;12.086;2023-08-12T00:01:52;12.43;;;9.27;;
9288;SDS011;4683;50.864;12.086;2023-08-12T00:04:22;12.10;;;9.33;;
9288;SDS011;4683;50.864;12.086;2023-08-12T00:06:50;10.67;;;8.70;;
9288;SDS011;4683;50.864;12.086;2023-08-12T00:09:18;13.40;;;7.17;;
9288;SDS011;4683;50.864;12.086;2023-08-12T00:11:47;9.00;;;6.67;;
9288;SDS011;4683;50.864;12.086;2023-08-12T00:14:15;12.67;;;6.90;;
9288;SDS011;4683;50.864;12.086;2023-08-12T00:16:43;6.43;;;5.63;;
9288;SDS011;4683;50.864;12.086;2023-08-12T00:19:13;7.10;;;6.13;;
9288;SDS011;4683;50.864;12.086;2023-08-12T00:21:44;8.13;;;6.33;;
9288;SDS011;4683;50.864;12.086;2023-08-12T00:24:13;8.37;;;6.57;;
9288;SDS011;4683;50.864;12.086;2023-08-12T00:26:44;6.03;;;5.43;;
9288;SDS011;4683;50.864;12.086;2023-08-12T00:29:12;7.27;;;5.70;;
9288;SDS011;4683;50.864;12.086;2023-08-12T00:31:41;6.77;;;5.53;;
9288;SDS011;4683;50.864;12.086;2023-08-12T00:34:09;5.93;;;5.37;;
9288;SDS011;4683;50.864;12.086;2023-08-12T00:36:39;6.03;;;5.13;;
9288;SDS011;4683;50.864;12.086;2023-08-12T00:39:09;8.77;;;5.57;;
9288;SDS011;4683;50.864;12.086;2023-08-12T00:41:38;6.73;;;5.50;;
9288;SDS011;4683;50.864;12.086;2023-08-12T00:44:07;6.57;;;5.87;;
9288;SDS011;4683;50.864;12.086;2023-08-12T00:46:35;6.27;;;5.77;;
9288;SDS011;4683;50.864;12.086;2023-08-12T00:49:09;5.83;;;5.33;;
9288;SDS011;4683;50.864;12.086;2023-08-12T00:51:40;6.23;;;4.90;;
9288;SDS011;4683;50.864;12.086;2023-08-12T00:54:14;5.17;;;4.67;;
9288;SDS011;4683;50.864;12.086;2023-08-12T00:56:44;5.70;;;5.20;;
9288;SDS011;4683;50.864;12.086;2023-08-12T00:59:13;6.33;;;5.07;;
9288;SDS011;4683;50.864;12.086;2023-08-12T01:01:44;7.60;;;5.17;;
9288;SDS011;4683;50.864;12.086;2023-08-12T01:04:13;5.57;;;4.80;;
9288;SDS011;4683;50.864;12.086;2023-08-12T01:06:44;6.03;;;5.37;;
9288;SDS011;4683;50.864;12.086;2023-08-12T01:09:14;4.97;;;4.57;;
9288;SDS011;4683;50.864;12.086;2023-08-12T01:11:48;5.30;;;4.80;;
9288;SDS011;4683;50.864;12.086;2023-08-12T01:14:22;5.00;;;4.50;;
9288;SDS011;4683;50.864;12.086;2023-08-12T01:16:57;6.40;;;5.43;;
9288;SDS011;4683;50.864;12.086;2023-08-12T01:19:32;5.70;;;5.20;;
9288;SDS011;4683;50.864;12.086;2023-08-12T01:22:03;7.30;;;4.87;;
9288;SDS011;4683;50.864;12.086;2023-08-12T01:24:40;5.70;;;5.20;;
9288;SDS011;4683;50.864;12.086;2023-08-12T01:27:12;6.47;;;5.83;;
9288;SDS011;4683;50.864;12.086;2023-08-12T01:29:41;5.47;;;4.60;;
9288;SDS011;4683;50.864;12.086;2023-08-12T01:32:14;8.30;;;5.43;;
9288;SDS011;4683;50.864;12.086;2023-08-12T01:34:53;6.37;;;5.40;;
9288;SDS011;4683;50.864;12.086;2023-08-12T01:37:34;6.07;;;5.27;;
9288;SDS011;4683;50.864;12.086;2023-08-12T01:40:07;6.43;;;5.80;;
9288;SDS011;4683;50.864;12.086;2023-08-12T01:42:39;5.90;;;5.40;;
9288;SDS011;4683;50.864;12.086;2023-08-12T01:45:08;6.13;;;5.53;;
9288;SDS011;4683;50.864;12.086;2023-08-12T01:47:42;5.90;;;5.40;;
9288;SDS011;4683;50.864;12.086;2023-08-12T01:50:11;5.50;;;5.00;;
9288;SDS011;4683;50.864;12.086;2023-08-12T01:52:39;5.23;;;4.80;;
9288;SDS011;4683;50.864;12.086;2023-08-12T01:55:10;4.90;;;4.50;;
9288;SDS011;4683;50.864;12.086;2023-08-12T01:57:38;5.87;;;5.30;;
9288;SDS011;4683;50.864;12.086;2023-08-12T02:00:07;5.40;;;4.90;;
9288;SDS011;4683;50.864;12.086;2023-08-12T02:02:37;5.43;;;4.47;;
9288;SDS011;4683;50.864;12.086;2023-08-12T02:05:06;6.43;;;5.00;;
9288;SDS011;4683;50.864;12.086;2023-08-12T02:07:35;5.30;;;4.90;;
9288;SDS011;4683;50.864;12.086;2023-08-12T02:10:04;5.30;;;4.87;;
9288;SDS011;4683;50.864;12.086;2023-08-12T02:12:35;5.00;;;4.50;;
9288;SDS011;4683;50.864;12.086;2023-08-12T02:15:05;4.93;;;4.53;;
9288;SDS011;4683;50.864;12.086;2023-08-12T02:17:35;5.27;;;4.77;;
9288;SDS011;4683;50.864;12.086;2023-08-12T02:20:04;5.70;;;5.10;;
9288;SDS011;4683;50.864;12.086;2023-08-12T02:22:34;4.93;;;4.50;;
9288;SDS011;4683;50.864;12.086;2023-08-12T02:25:03;4.97;;;4.60;;
9288;SDS011;4683;50.864;12.086;2023-08-12T02:27:32;7.90;;;4.97;;
9288;SDS011;4683;50.864;12.086;2023-08-12T02:30:02;4.60;;;4.20;;
9288;SDS011;4683;50.864;12.086;2023-08-12T02:32:32;5.57;;;4.83;;
9288;SDS011;4683;50.864;12.086;2023-08-12T02:35:01;4.90;;;4.37;;
9288;SDS011;4683;50.864;12.086;2023-08-12T02:37:30;6.37;;;5.87;;
9288;SDS011;4683;50.864;12.086;2023-08-12T02:39:58;7.00;;;4.50;;
9288;SDS011;4683;50.864;12.086;2023-08-12T02:42:32;7.43;;;5.33;;
9288;SDS011;4683;50.864;12.086;2023-08-12T02:45:02;8.07;;;5.40;;
9288;SDS011;4683;50.864;12.086;2023-08-12T02:47:32;5.77;;;5.17;;
9288;SDS011;4683;50.864;12.086;2023-08-12T02:50:00;5.07;;;4.57;;
9288;SDS011;4683;50.864;12.086;2023-08-12T02:52:29;5.10;;;4.63;;
9288;SDS011;4683;50.864;12.086;2023-08-12T02:54:58;5.30;;;4.80;;
9288;SDS011;4683;50.864;12.086;2023-08-12T02:57:27;5.87;;;5.30;;
9288;SDS011;4683;50.864;12.086;2023-08-12T02:59:55;6.43;;;4.90;;
9288;SDS011;4683;50.864;12.086;2023-08-12T03:06:12;5.07;;;4.57;;
9288;SDS011;4683;50.864;12.086;2023-08-12T03:08:40;4.40;;;4.00;;
9288;SDS011;4683;50.864;12.086;2023-08-12T03:11:08;4.90;;;4.40;;
9288;SDS011;4683;50.864;12.086;2023-08-12T03:13:37;4.30;;;4.00;;
9288;SDS011;4683;50.864;12.086;2023-08-12T03:16:07;4.13;;;3.83;;
9288;SDS011;4683;50.864;12.086;2023-08-12T03:18:40;7.47;;;5.80;;
9288;SDS011;4683;50.864;12.086;2023-08-12T03:21:08;8.60;;;4.80;;
9288;SDS011;4683;50.864;12.086;2023-08-12T03:23:39;7.00;;;6.33;;
9288;SDS011;4683;50.864;12.086;2023-08-12T03:26:18;4.40;;;4.00;;
9288;SDS011;4683;50.864;12.086;2023-08-12T03:28:46;4.70;;;4.23;;
9288;SDS011;4683;50.864;12.086;2023-08-12T03:31:15;4.90;;;4.50;;
9288;SDS011;4683;50.864;12.086;2023-08-12T03:33:46;4.57;;;4.17;;
9288;SDS011;4683;50.864;12.086;2023-08-12T03:36:14;5.87;;;4.60;;
9288;SDS011;4683;50.864;12.086;2023-08-12T03:38:44;5.40;;;4.30;;
9288;SDS011;4683;50.864;12.086;2023-08-12T03:41:12;4.53;;;4.23;;
9288;SDS011;4683;50.864;12.086;2023-08-12T03:43:41;4.47;;;4.07;;
9288;SDS011;4683;50.864;12.086;2023-08-12T03:46:10;4.53;;;3.90;;
9288;SDS011;4683;50.864;12.086;2023-08-12T03:48:39;4.47;;;4.07;;
9288;SDS011;4683;50.864;12.086;2023-08-12T03:51:07;4.70;;;4.27;;
9288;SDS011;4683;50.864;12.086;2023-08-12T03:53:35;4.37;;;3.97;;
9288;SDS011;4683;50.864;12.086;2023-08-12T03:56:05;4.17;;;3.87;;
9288;SDS011;4683;50.864;12.086;2023-08-12T03:58:35;4.47;;;4.07;;
9288;SDS011;4683;50.864;12.086;2023-08-12T04:01:03;4.93;;;4.40;;
9288;SDS011;4683;50.864;12.086;2023-08-12T04:03:32;4.40;;;4.10;;
9288;SDS011;4683;50.864;12.086;2023-08-12T04:06:03;4.70;;;4.30;;
9288;SDS011;4683;50.864;12.086;2023-08-12T04:08:31;4.53;;;4.13;;
9288;SDS011;4683;50.864;12.086;2023-08-12T04:11:02;4.40;;;4.00;;
9288;SDS011;4683;50.864;12.086;2023-08-12T04:13:33;4.67;;;4.03;;
9288;SDS011;4683;50.864;12.086;2023-08-12T04:16:01;4.67;;;4.27;;
9288;SDS011;4683;50.864;12.086;2023-08-12T04:18:30;4.70;;;4.20;;
9288;SDS011;4683;50.864;12.086;2023-08-12T04:20:59;4.90;;;4.50;;
9288;SDS011;4683;50.864;12.086;2023-08-12T04:23:27;4.63;;;4.10;;
9288;SDS011;4683;50.864;12.086;2023-08-12T04:25:56;6.57;;;4.53;;
9288;SDS011;4683;50.864;12.086;2023-08-12T04:28:24;4.23;;;3.67;;
9288;SDS011;4683;50.864;12.086;2023-08-12T04:30:55;4.70;;;4.07;;
9288;SDS011;4683;50.864;12.086;2023-08-12T04:33:24;4.40;;;4.00;;
9288;SDS011;4683;50.864;12.086;2023-08-12T04:35:52;4.83;;;4.00;;
9288;SDS011;4683;50.864;12.086;2023-08-12T04:38:21;4.67;;;4.27;;
9288;SDS011;4683;50.864;12.086;2023-08-12T04:40:50;4.63;;;4.23;;
9288;SDS011;4683;50.864;12.086;2023-08-12T04:43:20;4.30;;;3.90;;
9288;SDS011;4683;50.864;12.086;2023-08-12T04:45:48;5.30;;;4.20;;
9288;SDS011;4683;50.864;12.086;2023-08-12T04:48:20;4.70;;;4.23;;
9288;SDS011;4683;50.864;12.086;2023-08-12T04:50:48;4.37;;;4.07;;
9288;SDS011;4683;50.864;12.086;2023-08-12T04:53:17;5.07;;;3.83;;
9288;SDS011;4683;50.864;12.086;2023-08-12T04:55:45;4.60;;;4.23;;
9288;SDS011;4683;50.864;12.086;2023-08-12T04:58:18;4.03;;;3.70;;
9288;SDS011;4683;50.864;12.086;2023-08-12T05:00:46;4.57;;;4.10;;
9288;SDS011;4683;50.864;12.086;2023-08-12T05:03:17;4.60;;;3.47;;
9288;SDS011;4683;50.864;12.086;2023-08-12T05:05:48;4.03;;;3.73;;
9288;SDS011;4683;50.864;12.086;2023-08-12T05:08:17;4.57;;;4.17;;
9288;SDS011;4683;50.864;12.086;2023-08-12T05:10:47;4.23;;;3.77;;
9288;SDS011;4683;50.864;12.086;2023-08-12T05:13:16;4.33;;;3.93;;
9288;SDS011;4683;50.864;12.086;2023-08-12T05:15:45;4.07;;;3.77;;
9288;SDS011;4683;50.864;12.086;2023-08-12T05:18:14;3.90;;;3.60;;
9288;SDS011;4683;50.864;12.086;2023-08-12T05:20:44;4.30;;;4.00;;
9288;SDS011;4683;50.864;12.086;2023-08-12T05:23:13;5.03;;;4.17;;
9288;SDS011;4683;50.864;12.086;2023-08-12T05:25:43;4.60;;;4.20;;
9288;SDS011;4683;50.864;12.086;2023-08-12T05:28:11;4.57;;;4.17;;
9288;SDS011;4683;50.864;12.086;2023-08-12T05:30:39;4.57;;;4.13;;
9288;SDS011;4683;50.864;12.086;2023-08-12T05:33:08;4.37;;;3.97;;
9288;SDS011;4683;50.864;12.086;2023-08-12T05:35:36;4.17;;;3.87;;
9288;SDS011;4683;50.864;12.086;2023-08-12T05:38:06;4.20;;;3.90;;
9288;SDS011;4683;50.864;12.086;2023-08-12T05:40:35;4.27;;;3.97;;
9288;SDS011;4683;50.864;12.086;2023-08-12T05:43:03;4.37;;;3.97;;
9288;SDS011;4683;50.864;12.086;2023-08-12T05:45:31;4.97;;;4.40;;
9288;SDS011;4683;50.864;12.086;2023-08-12T05:48:00;4.03;;;3.73;;
9288;SDS011;4683;50.864;12.086;2023-08-12T05:54:15;4.57;;;4.17;;
9288;SDS011;4683;50.864;12.086;2023-08-12T05:56:43;4.67;;;4.27;;
9288;SDS011;4683;50.864;12.086;2023-08-12T05:59:12;4.50;;;4.10;;
9288;SDS011;4683;50.864;12.086;2023-08-12T06:01:40;5.50;;;5.00;;
9288;SDS011;4683;50.864;12.086;2023-08-12T06:04:09;6.23;;;4.47;;
9288;SDS011;4683;50.864;12.086;2023-08-12T06:06:38;10.20;;;9.33;;
9288;SDS011;4683;50.864;12.086;2023-08-12T06:09:06;5.10;;;4.37;;
9288;SDS011;4683;50.864;12.086;2023-08-12T06:11:36;4.13;;;3.77;;
9288;SDS011;4683;50.864;12.086;2023-08-12T06:14:05;5.40;;;4.20;;
9288;SDS011;4683;50.864;12.086;2023-08-12T06:16:34;5.77;;;3.73;;
9288;SDS011;4683;50.864;12.086;2023-08-12T06:19:04;3.80;;;3.50;;
9288;SDS011;4683;50.864;12.086;2023-08-12T06:21:33;4.43;;;4.13;;
9288;SDS011;4683;50.864;12.086;2023-08-12T06:24:02;4.70;;;4.30;;
9288;SDS011;4683;50.864;12.086;2023-08-12T06:26:32;3.80;;;3.50;;
9288;SDS011;4683;50.864;12.086;2023-08-12T06:29:02;4.73;;;4.23;;
9288;SDS011;4683;50.864;12.086;2023-08-12T06:31:30;4.47;;;4.10;;
9288;SDS011;4683;50.864;12.086;2023-08-12T06:33:58;4.57;;;4.17;;
9288;SDS011;4683;50.864;12.086;2023-08-12T06:36:28;4.70;;;4.40;;
9288;SDS011;4683;50.864;12.086;2023-08-12T06:38:56;4.20;;;3.90;;
9288;SDS011;4683;50.864;12.086;2023-08-12T06:41:24;4.17;;;3.80;;
9288;SDS011;4683;50.864;12.086;2023-08-12T06:43:52;3.83;;;3.53;;
9288;SDS011;4683;50.864;12.086;2023-08-12T06:46:22;3.93;;;3.63;;
9288;SDS011;4683;50.864;12.086;2023-08-12T06:48:51;3.67;;;3.37;;
9288;SDS011;4683;50.864;12.086;2023-08-12T06:51:19;3.77;;;3.47;;
9288;SDS011;4683;50.864;12.086;2023-08-12T06:53:48;4.50;;;4.10;;
9288;SDS011;4683;50.864;12.086;2023-08-12T06:56:18;4.20;;;3.90;;
9288;SDS011;4683;50.864;12.086;2023-08-12T06:58:47;3.90;;;3.60;;
9288;SDS011;4683;50.864;12.086;2023-08-12T07:01:15;4.00;;;3.60;;
9288;SDS011;4683;50.864;12.086;2023-08-12T07:03:45;4.40;;;4.00;;
9288;SDS011;4683;50.864;12.086;2023-08-12T07:06:14;4.10;;;3.80;;
9288;SDS011;4683;50.864;12.086;2023-08-12T07:08:42;3.90;;;3.37;;
9288;SDS011;4683;50.864;12.086;2023-08-12T07:11:11;4.10;;;3.70;;
9288;SDS011;4683;50.864;12.086;2023-08-12T07:13:40;4.07;;;3.77;;
9288;SDS011;4683;50.864;12.086;2023-08-12T07:16:12;3.57;;;3.27;;
9288;SDS011;4683;50.864;12.086;2023-08-12T07:18:40;4.03;;;3.47;;
9288;SDS011;4683;50.864;12.086;2023-08-12T07:21:11;3.73;;;3.43;;
9288;SDS011;4683;50.864;12.086;2023-08-12T07:23:39;3.70;;;3.40;;
9288;SDS011;4683;50.864;12.086;2023-08-12T07:26:08;3.63;;;3.13;;
9288;SDS011;4683;50.864;12.086;2023-08-12T07:28:36;3.43;;;3.13;;
9288;SDS011;4683;50.864;12.086;2023-08-12T07:31:05;4.20;;;3.90;;
9288;SDS011;4683;50.864;12.086;2023-08-12T07:33:34;4.13;;;3.73;;
9288;SDS011;4683;50.864;12.086;2023-08-12T07:36:03;3.60;;;3.30;;
9288;SDS011;4683;50.864;12.086;2023-08-12T07:38:33;4.77;;;4.37;;
9288;SDS011;4683;50.864;12.086;2023-08-12T07:41:02;4.47;;;3.70;;
9288;SDS011;4683;50.864;12.086;2023-08-12T07:43:31;3.40;;;3.10;;
9288;SDS011;4683;50.864;12.086;2023-08-12T07:46:00;4.20;;;3.50;;
9288;SDS011;4683;50.864;12.086;2023-08-12T07:48:28;4.20;;;3.40;;
9288;SDS011;4683;50.864;12.086;2023-08-12T07:50:57;7.17;;;3.63;;
9288;SDS011;4683;50.864;12.086;2023-08-12T07:53:25;4.23;;;3.83;;
9288;SDS011;4683;50.864;12.086;2023-08-12T07:55:55;3.63;;;3.33;;
9288;SDS011;4683;50.864;12.086;2023-08-12T07:58:24;3.63;;;3.33;;
9288;SDS011;4683;50.864;12.086;2023-08-12T08:00:52;5.50;;;3.43;;
9288;SDS011;4683;50.864;12.086;2023-08-12T08:03:21;3.80;;;3.50;;
9288;SDS011;4683;50.864;12.086;2023-08-12T08:05:50;3.90;;;3.60;;
9288;SDS011;4683;50.864;12.086;2023-08-12T08:08:19;5.70;;;3.70;;
9288;SDS011;4683;50.864;12.086;2023-08-12T08:10:47;4.37;;;3.97;;
9288;SDS011;4683;50.864;12.086;2023-08-12T08:13:20;4.83;;;4.43;;
9288;SDS011;4683;50.864;12.086;2023-08-12T08:15:48;4.30;;;3.90;;
9288;SDS011;4683;50.864;12.086;2023-08-12T08:18:17;5.30;;;3.83;;
9288;SDS011;4683;50.864;12.086;2023-08-12T08:20:45;3.60;;;3.30;;
9288;SDS011;4683;50.864;12.086;2023-08-12T08:23:14;3.90;;;3.23;;
9288;SDS011;4683;50.864;12.086;2023-08-12T08:25:43;3.43;;;3.10;;
9288;SDS011;4683;50.864;12.086;2023-08-12T08:28:12;3.43;;;3.13;;
9288;SDS011;4683;50.864;12.086;2023-08-12T08:30:42;4.40;;;3.83;;
9288;SDS011;4683;50.864;12.086;2023-08-12T08:33:11;3.10;;;2.90;;
9288;SDS011;4683;50.864;12.086;2023-08-12T08:35:40;4.97;;;4.57;;
9288;SDS011;4683;50.864;12.086;2023-08-12T08:38:09;3.20;;;3.00;;
9288;SDS011;4683;50.864;12.086;2023-08-12T08:40:39;3.40;;;3.10;;
9288;SDS011;4683;50.864;12.086;2023-08-12T08:43:07;3.90;;;3.60;;
9288;SDS011;4683;50.864;12.086;2023-08-12T08:45:36;5.80;;;5.00;;
9288;SDS011;4683;50.864;12.086;2023-08-12T08:48:08;3.70;;;3.40;;
9288;SDS011;4683;50.864;12.086;2023-08-12T08:50:37;3.27;;;3.07;;
9288;SDS011;4683;50.864;12.086;2023-08-12T08:53:08;5.00;;;3.50;;
9288;SDS011;4683;50.864;12.086;2023-08-12T08:55:37;3.10;;;2.67;;
9288;SDS011;4683;50.864;12.086;2023-08-12T08:58:07;3.60;;;3.30;;
9288;SDS011;4683;50.864;12.086;2023-08-12T09:00:42;3.70;;;3.40;;
9288;SDS011;4683;50.864;12.086;2023-08-12T09:03:13;3.37;;;3.17;;
9288;SDS011;4683;50.864;12.086;2023-08-12T09:05:43;3.00;;;2.80;;
9288;SDS011;4683;50.864;12.086;2023-08-12T09:08:12;3.70;;;3.40;;
9288;SDS011;4683;50.864;12.086;2023-08-12T09:10:42;3.77;;;3.47;;
9288;SDS011;4683;50.864;12.086;2023-08-12T09:13:13;5.97;;;3.60;;
9288;SDS011;4683;50.864;12.086;2023-08-12T09:15:45;4.43;;;3.53;;
9288;SDS011;4683;50.864;12.086;2023-08-12T09:18:16;4.00;;;3.70;;
9288;SDS011;4683;50.864;12.086;2023-08-12T09:20:46;3.57;;;3.27;;
9288;SDS011;4683;50.864;12.086;2023-08-12T09:23:14;7.20;;;5.53;;
9288;SDS011;4683;50.864;12.086;2023-08-12T09:25:44;3.70;;;3.40;;
9288;SDS011;4683;50.864;12.086;2023-08-12T09:28:12;4.00;;;2.60;;
9288;SDS011;4683;50.864;12.086;2023-08-12T09:30:42;3.30;;;3.10;;
9288;SDS011;4683;50.864;12.086;2023-08-12T09:33:23;3.63;;;3.27;;
9288;SDS011;4683;50.864;12.086;2023-08-12T09:35:53;3.10;;;2.90;;
9288;SDS011;4683;50.864;12.086;2023-08-12T09:38:23;3.03;;;2.77;;
9288;SDS011;4683;50.864;12.086;2023-08-12T09:40:53;3.97;;;3.23;;
9288;SDS011;4683;50.864;12.086;2023-08-12T09:43:27;4.43;;;3.00;;
9288;SDS011;4683;50.864;12.086;2023-08-12T09:45:56;3.80;;;3.50;;
9288;SDS011;4683;50.864;12.086;2023-08-12T09:48:27;3.07;;;2.87;;
9288;SDS011;4683;50.864;12.086;2023-08-12T09:50:56;3.67;;;3.37;;
9288;SDS011;4683;50.864;12.086;2023-08-12T09:53:29;3.20;;;2.93;;
9288;SDS011;4683;50.864;12.086;2023-08-12T09:55:59;3.87;;;3.40;;
9288;SDS011;4683;50.864;12.086;2023-08-12T09:58:35;3.00;;;2.80;;
9288;SDS011;4683;50.864;12.086;2023-08-12T10:01:08;3.13;;;2.90;;
9288;SDS011;4683;50.864;12.086;2023-08-12T10:03:41;2.97;;;2.77;;
9288;SDS011;4683;50.864;12.086;2023-08-12T10:06:15;2.67;;;2.47;;
9288;SDS011;4683;50.864;12.086;2023-08-12T10:08:47;3.57;;;2.93;;
9288;SDS011;4683;50.864;12.086;2023-08-12T10:11:17;2.80;;;2.60;;
9288;SDS011;4683;50.864;12.086;2023-08-12T10:13:48;3.07;;;2.80;;
9288;SDS011;4683;50.864;12.086;2023-08-12T10:16:16;3.83;;;3.53;;
9288;SDS011;4683;50.864;12.086;2023-08-12T10:18:46;3.10;;;2.80;;
9288;SDS011;4683;50.864;12.086;2023-08-12T10:21:16;2.90;;;2.67;;
9288;SDS011;4683;50.864;12.086;2023-08-12T10:23:46;3.60;;;3.30;;
9288;SDS011;4683;50.864;12.086;2023-08-12T10:26:17;4.33;;;3.93;;
9288;SDS011;4683;50.864;12.086;2023-08-12T10:28:46;3.60;;;3.00;;
9288;SDS011;4683;50.864;12.086;2023-08-12T10:31:17;5.07;;;3.17;;
9288;SDS011;4683;50.864;12.086;2023-08-12T10:33:48;3.10;;;2.90;;
9288;SDS011;4683;50.864;12.086;2023-08-12T10:36:17;2.87;;;2.67;;
9288;SDS011;4683;50.864;12.086;2023-08-12T10:38:46;2.90;;;2.70;;
9288;SDS011;4683;50.864;12.086;2023-08-12T10:41:16;2.90;;;2.70;;
9288;SDS011;4683;50.864;12.086;2023-08-12T10:43:54;3.83;;;2.50;;
9288;SDS011;4683;50.864;12.086;2023-08-12T10:46:31;3.13;;;2.87;;
9288;SDS011;4683;50.864;12.086;2023-08-12T10:49:06;3.60;;;2.40;;
9288;SDS011;4683;50.864;12.086;2023-08-12T10:51:41;2.70;;;2.50;;
9288;SDS011;4683;50.864;12.086;2023-08-12T10:54:15;6.23;;;3.73;;
9288;SDS011;4683;50.864;12.086;2023-08-12T10:57:06;3.90;;;3.10;;
9288;SDS011;4683;50.864;12.086;2023-08-12T10:59:48;8.17;;;7.47;;
9288;SDS011;4683;50.864;12.086;2023-08-12T11:02:19;4.57;;;3.90;;
9288;SDS011;4683;50.864;12.086;2023-08-12T11:04:55;4.80;;;3.73;;
9288;SDS011;4683;50.864;12.086;2023-08-12T11:07:29;4.23;;;3.40;;
9288;SDS011;4683;50.864;12.086;2023-08-12T11:10:05;4.57;;;3.50;;
9288;SDS011;4683;50.864;12.086;2023-08-12T11:12:40;3.70;;;3.40;;
9288;SDS011;4683;50.864;12.086;2023-08-12T11:15:15;3.60;;;3.30;;
9288;SDS011;4683;50.864;12.086;2023-08-12T11:17:44;4.13;;;3.20;;
9288;SDS011;4683;50.864;12.086;2023-08-12T11:20:15;5.70;;;3.80;;
9288;SDS011;4683;50.864;12.086;2023-08-12T11:22:45;4.40;;;4.00;;
9288;SDS011;4683;50.864;12.086;2023-08-12T11:25:15;5.20;;;4.00;;
9288;SDS011;4683;50.864;12.086;2023-08-12T11:27:44;4.27;;;3.37;;
9288;SDS011;4683;50.864;12.086;2023-08-12T11:30:18;3.47;;;3.17;;
9288;SDS011;4683;50.864;12.086;2023-08-12T11:32:49;4.30;;;3.87;;
9288;SDS011;4683;50.864;12.086;2023-08-12T11:35:21;3.77;;;2.80;;
9288;SDS011;4683;50.864;12.086;2023-08-12T11:37:53;3.43;;;3.00;;
9288;SDS011;4683;50.864;12.086;2023-08-12T11:40:24;3.43;;;3.13;;
9288;SDS011;4683;50.864;12.086;2023-08-12T11:42:55;4.13;;;3.20;;
9288;SDS011;4683;50.864;12.086;2023-08-12T11:45:24;3.13;;;2.70;;
9288;SDS011;4683;50.864;12.086;2023-08-12T11:47:54;4.47;;;2.83;;
9288;SDS011;4683;50.864;12.086;2023-08-12T11:50:26;2.77;;;2.57;;
9288;SDS011;4683;50.864;12.086;2023-08-12T11:52:55;3.03;;;2.37;;
9288;SDS011;4683;50.864;12.086;2023-08-12T11:55:25;3.60;;;3.30;;
9288;SDS011;4683;50.864;12.086;2023-08-12T11:57:54;3.03;;;2.43;;
9288;SDS011;4683;50.864;12.086;2023-08-12T12:00:25;3.03;;;2.73;;
9288;SDS011;4683;50.864;12.086;2023-08-12T12:02:55;3.00;;;2.70;;
9288;SDS011;4683;50.864;12.086;2023-08-12T12:05:27;3.27;;;2.97;;
9288;SDS011;4683;50.864;12.086;2023-08-12T12:07:56;2.63;;;2.27;;
9288;SDS011;4683;50.864;12.086;2023-08-12T12:10:27;2.63;;;2.50;;
9288;SDS011;4683;50.864;12.086;2023-08-12T12:12:59;5.27;;;3.00;;
9288;SDS011;4683;50.864;12.086;2023-08-12T12:15:30;3.70;;;2.80;;
9288;SDS011;4683;50.864;12.086;2023-08-12T12:18:09;2.30;;;2.13;;
9288;SDS011;4683;50.864;12.086;2023-08-12T12:20:53;2.80;;;2.60;;
9288;SDS011;4683;50.864;12.086;2023-08-12T12:23:26;3.50;;;2.40;;
9288;SDS011;4683;50.864;12.086;2023-08-12T12:25:56;3.57;;;2.43;;
9288;SDS011;4683;50.864;12.086;2023-08-12T12:28:27;3.00;;;2.80;;
9288;SDS011;4683;50.864;12.086;2023-08-12T12:30:56;3.33;;;3.03;;
9288;SDS011;4683;50.864;12.086;2023-08-12T12:33:25;3.03;;;2.83;;
9288;SDS011;4683;50.864;12.086;2023-08-12T12:35:55;2.80;;;2.60;;
9288;SDS011;4683;50.864;12.086;2023-08-12T12:38:25;3.53;;;2.90;;
9288;SDS011;4683;50.864;12.086;2023-08-12T12:40:53;3.37;;;2.77;;
9288;SDS011;4683;50.864;12.086;2023-08-12T12:43:22;2.97;;;2.67;;
9288;SDS011;4683;50.864;12.086;2023-08-12T12:45:52;2.80;;;2.60;;
9288;SDS011;4683;50.864;12.086;2023-08-12T12:48:20;3.17;;;2.97;;
9288;SDS011;4683;50.864;12.086;2023-08-12T12:50:49;3.17;;;2.97;;
9288;SDS011;4683;50.864;12.086;2023-08-12T12:53:19;4.13;;;3.03;;
9288;SDS011;4683;50.864;12.086;2023-08-12T12:55:47;2.80;;;2.60;;
9288;SDS011;4683;50.864;12.086;2023-08-12T12:58:16;3.03;;;2.80;;
9288;SDS011;4683;50.864;12.086;2023-08-12T13:00:48;3.10;;;2.90;;
9288;SDS011;4683;50.864;12.086;2023-08-12T13:03:19;3.50;;;2.80;;
9288;SDS011;4683;50.864;12.086;2023-08-12T13:05:48;3.50;;;3.20;;
9288;SDS011;4683;50.864;12.086;2023-08-12T13:08:20;3.37;;;3.07;;
9288;SDS011;4683;50.864;12.086;2023-08-12T13:10:48;4.10;;;3.70;;
9288;SDS011;4683;50.864;12.086;2023-08-12T13:13:19;4.33;;;3.40;;
9288;SDS011;4683;50.864;12.086;2023-08-12T13:15:48;3.30;;;3.10;;
9288;SDS011;4683;50.864;12.086;2023-08-12T13:18:21;3.50;;;3.20;;
9288;SDS011;4683;50.864;12.086;2023-08-12T13:20:50;3.07;;;2.77;;
9288;SDS011;4683;50.864;12.086;2023-08-12T13:23:21;3.13;;;2.80;;
9288;SDS011;4683;50.864;12.086;2023-08-12T13:25:50;3.33;;;3.03;;
9288;SDS011;4683;50.864;12.086;2023-08-12T13:28:19;4.37;;;3.23;;
9288;SDS011;4683;50.864;12.086;2023-08-12T13:30:47;3.23;;;2.93;;
9288;SDS011;4683;50.864;12.086;2023-08-12T13:33:16;3.87;;;3.50;;
9288;SDS011;4683;50.864;12.086;2023-08-12T13:35:46;3.13;;;2.93;;
9288;SDS011;4683;50.864;12.086;2023-08-12T13:38:16;3.20;;;3.00;;
9288;SDS011;4683;50.864;12.086;2023-08-12T13:40:47;3.33;;;3.13;;
9288;SDS011;4683;50.864;12.086;2023-08-12T13:43:18;3.67;;;3.47;;
9288;SDS011;4683;50.864;12.086;2023-08-12T13:45:46;3.83;;;3.20;;
9288;SDS011;4683;50.864;12.086;2023-08-12T13:48:14;4.40;;;4.00;;
9288;SDS011;4683;50.864;12.086;2023-08-12T13:50:45;3.57;;;3.30;;
9288;SDS011;4683;50.864;12.086;2023-08-12T13:53:24;3.13;;;2.83;;
9288;SDS011;4683;50.864;12.086;2023-08-12T13:56:01;3.97;;;3.50;;
9288;SDS011;4683;50.864;12.086;2023-08-12T13:58:29;3.37;;;3.13;;
9288;SDS011;4683;50.864;12.086;2023-08-12T14:00:58;3.60;;;3.17;;
9288;SDS011;4683;50.864;12.086;2023-08-12T14:03:27;3.80;;;3.50;;
9288;SDS011;4683;50.864;12.086;2023-08-12T14:05:56;3.20;;;3.00;;
9288;SDS011;4683;50.864;12.086;2023-08-12T14:08:25;3.83;;;2.97;;
9288;SDS011;4683;50.864;12.086;2023-08-12T14:10:55;4.87;;;3.60;;
9288;SDS011;4683;50.864;12.086;2023-08-12T14:13:26;3.50;;;3.20;;
9288;SDS011;4683;50.864;12.086;2023-08-12T14:15:54;4.10;;;3.30;;
9288;SDS011;4683;50.864;12.086;2023-08-12T14:18:25;4.13;;;3.43;;
9288;SDS011;4683;50.864;12.086;2023-08-12T14:20:54;4.17;;;3.00;;
9288;SDS011;4683;50.864;12.086;2023-08-12T14:23:23;4.87;;;3.80;;
9288;SDS011;4683;50.864;12.086;2023-08-12T14:25:52;4.13;;;3.83;;
9288;SDS011;4683;50.864;12.086;2023-08-12T14:28:21;4.30;;;4.00;;
9288;SDS011;4683;50.864;12.086;2023-08-12T14:30:51;4.47;;;4.00;;
9288;SDS011;4683;50.864;12.086;2023-08-12T14:33:22;3.67;;;3.37;;
9288;SDS011;4683;50.864;12.086;2023-08-12T14:35:50;3.80;;;3.50;;
9288;SDS011;4683;50.864;12.086;2023-08-12T14:38:20;3.70;;;3.40;;
9288;SDS011;4683;50.864;12.086;2023-08-12T14:40:49;4.80;;;3.73;;
9288;SDS011;4683;50.864;12.086;2023-08-12T14:43:17;3.43;;;3.07;;
9288;SDS011;4683;50.864;12.086;2023-08-12T14:45:47;3.83;;;3.53;;
9288;SDS011;4683;50.864;12.086;2023-08-12T14:48:19;4.07;;;3.67;;
9288;SDS011;4683;50.864;12.086;2023-08-12T14:50:49;3.83;;;3.47;;
9288;SDS011;4683;50.864;12.086;2023-08-12T14:53:18;4.00;;;3.63;;
9288;SDS011;4683;50.864;12.086;2023-08-12T14:55:48;4.20;;;3.80;;
9288;SDS011;4683;50.864;12.086;2023-08-12T14:58:17;4.40;;;4.00;;
9288;SDS011;4683;50.864;12.086;2023-08-12T15:00:46;4.10;;;3.80;;
9288;SDS011;4683;50.864;12.086;2023-08-12T15:03:15;4.80;;;4.40;;
9288;SDS011;4683;50.864;12.086;2023-08-12T15:05:59;5.27;;;3.73;;
9288;SDS011;4683;50.864;12.086;2023-08-12T15:08:32;9.73;;;5.43;;
9288;SDS011;4683;50.864;12.086;2023-08-12T15:11:01;5.37;;;3.53;;
9288;SDS011;4683;50.864;12.086;2023-08-12T15:13:30;5.43;;;3.53;;
9288;SDS011;4683;50.864;12.086;2023-08-12T15:15:58;4.23;;;3.50;;
9288;SDS011;4683;50.864;12.086;2023-08-12T15:18:29;6.50;;;4.10;;
9288;SDS011;4683;50.864;12.086;2023-08-12T15:21:00;3.97;;;3.30;;
9288;SDS011;4683;50.864;12.086;2023-08-12T15:23:30;3.90;;;3.40;;
9288;SDS011;4683;50.864;12.086;2023-08-12T15:26:01;3.70;;;3.40;;